createdAt,value
2019-05-21T04:50:50.241Z,0.0
2019-05-21T04:52:00.289Z,0.0
2019-05-21T04:53:00.291Z,0.0
2019-05-21T04:54:00.332Z,0.0
2019-05-21T04:55:00.313Z,0.0
2019-05-21T04:57:10.333Z,0.0
2019-05-21T04:58:00.352Z,0.0
2019-05-21T04:59:00.364Z,0.0
2019-05-21T05:00:00.418Z,0.0
2019-05-21T05:01:00.454Z,0.0
2019-05-21T05:02:10.531Z,0.0
2019-05-21T05:04:00.602Z,0.0
2019-05-21T05:05:00.657Z,0.0
2019-05-21T05:06:00.618Z,0.0
2019-05-21T05:07:25.174Z,0.0
2019-05-21T05:08:00.658Z,0.0
2019-05-21T05:09:00.702Z,0.0
2019-05-21T05:10:00.691Z,0.0
2019-05-21T05:11:00.748Z,0.0
2019-05-21T05:12:10.734Z,0.0
2019-05-21T05:13:10.765Z,0.0
2019-05-21T05:14:10.755Z,0.0
2019-05-21T05:15:10.765Z,0.0
2019-05-21T05:16:10.787Z,0.0
2019-05-21T05:17:20.809Z,0.0
2019-05-21T05:18:20.823Z,0.0
2019-05-21T05:19:30.971Z,0.0
2019-05-21T05:20:31.044Z,0.0
2019-05-21T05:21:31.092Z,0.0
2019-05-21T05:22:51.028Z,0.0
2019-05-21T05:23:51.039Z,0.0
2019-05-21T05:24:51.066Z,0.0
2019-05-21T05:25:51.095Z,0.0
2019-05-21T05:27:11.196Z,0.0
2019-05-21T05:58:42.138Z,0.6
2019-05-21T05:59:22.182Z,0.8
2019-05-21T06:00:22.261Z,0.4
2019-05-21T06:03:22.422Z,0.0
2019-05-21T06:04:12.435Z,0.0
2019-05-21T06:05:12.463Z,0.0
2019-05-21T06:08:12.501Z,0.2
2019-05-21T06:09:12.514Z,0.6
2019-05-21T06:10:12.562Z,0.7
2019-05-21T06:11:12.619Z,1.2
2019-05-21T06:13:22.657Z,0.4
2019-05-21T06:14:22.679Z,0.8
2019-05-21T06:15:22.697Z,0.4
2019-05-21T06:16:42.726Z,0.8
2019-05-21T06:17:42.792Z,0.6
2019-05-21T06:18:22.782Z,0.6
2019-05-21T06:19:22.831Z,0.8
2019-05-21T06:20:22.811Z,0.6
2019-05-21T06:21:42.833Z,0.8
2019-05-21T06:22:42.874Z,0.6
2019-05-21T06:23:22.890Z,0.0
2019-05-21T06:24:22.936Z,0.0
2019-05-21T06:25:22.927Z,0.6
2019-05-21T06:26:42.952Z,0.6
2019-05-21T06:27:43.017Z,0.8
2019-05-21T06:28:23.020Z,0.4
2019-05-21T06:29:23.030Z,0.4
2019-05-21T06:30:23.135Z,0.6
2019-05-21T06:31:43.141Z,0.0
2019-05-21T06:32:43.193Z,0.0
2019-05-21T06:33:23.173Z,0.0
2019-05-21T06:34:23.188Z,0.0
2019-05-21T06:35:23.203Z,0.0
2019-05-21T06:38:23.231Z,0.0
2019-05-21T06:39:13.247Z,0.0
2019-05-21T06:40:13.272Z,0.0
2019-05-21T06:41:13.289Z,0.0
2019-05-21T06:42:23.366Z,0.0
2019-05-21T06:43:13.392Z,0.0
2019-05-21T06:44:13.384Z,0.0
2019-05-21T06:45:13.459Z,0.0
2019-05-21T06:46:13.484Z,0.0
2019-05-21T06:47:23.499Z,0.0
2019-05-21T06:48:13.509Z,0.0
2019-05-21T06:49:13.516Z,0.0
2019-05-21T06:50:13.566Z,0.0
2019-05-21T06:51:13.536Z,0.0
2019-05-21T06:53:13.561Z,0.0
2019-05-21T06:54:13.577Z,0.0
2019-05-21T06:55:13.618Z,0.0
2019-05-21T06:56:13.602Z,0.0
2019-05-21T06:58:23.650Z,0.0
2019-05-21T06:59:23.653Z,0.0
2019-05-21T07:00:23.701Z,0.0
2019-05-21T07:01:43.713Z,0.0
2019-05-21T07:02:43.745Z,0.0
2019-05-21T07:03:23.755Z,0.0
2019-05-21T07:04:23.774Z,0.0
2019-05-21T07:05:23.783Z,0.0
2019-05-21T07:06:44.822Z,0.0
2019-05-21T07:07:43.863Z,0.0
2019-05-21T07:08:33.913Z,0.0
2019-05-21T07:09:23.891Z,0.8
2019-05-21T07:10:23.904Z,0.8
2019-05-21T07:11:43.930Z,0.4
2019-05-21T07:12:43.979Z,0.4
2019-05-21T07:13:23.959Z,0.4
2019-05-21T07:14:23.962Z,0.0
2019-05-21T07:15:24.016Z,0.0
2019-05-21T07:16:44.047Z,0.4
2019-05-21T07:17:44.040Z,0.8
2019-05-21T07:18:54.111Z,0.4
2019-05-21T07:19:54.171Z,0.0
2019-05-21T07:20:54.199Z,0.0
2019-05-21T07:22:14.250Z,0.0
2019-05-21T07:27:24.367Z,0.0
2019-05-21T07:32:24.435Z,0.0
2019-05-21T07:37:24.517Z,0.6
2019-05-21T07:39:54.564Z,0.0
2019-05-21T07:40:54.571Z,0.8
2019-05-21T07:42:14.678Z,0.4
2019-05-21T07:47:24.818Z,0.4
2019-05-21T07:49:54.840Z,0.8
2019-05-21T07:50:54.860Z,0.8
2019-05-21T07:52:14.874Z,0.0
2019-05-21T07:53:05.291Z,0.0
2019-05-21T07:57:25.078Z,0.6
2019-05-21T07:59:55.155Z,0.8
2019-05-21T08:00:55.185Z,0.4
2019-05-21T08:02:15.233Z,0.0
2019-05-21T08:07:25.371Z,0.4
2019-05-21T08:09:55.363Z,0.8
2019-05-21T08:10:55.387Z,0.8
2019-05-21T08:12:35.212Z,0.8
2019-05-21T08:17:25.663Z,1.2
2019-05-21T08:20:08.037Z,0.8
2019-05-21T08:20:55.846Z,0.6
2019-05-21T08:22:15.843Z,0.8
2019-05-21T08:27:26.024Z,0.4
2019-05-21T08:29:56.091Z,0.2
2019-05-21T08:32:26.081Z,0.0
2019-05-21T08:42:26.515Z,0.0
2019-05-21T08:47:16.651Z,0.6
2019-05-21T08:52:26.742Z,0.8
2019-05-21T08:57:16.798Z,0.4
2019-05-21T09:07:26.963Z,0.9
2019-05-21T09:13:57.125Z,0.8
2019-05-21T09:16:57.149Z,0.8
2019-05-21T09:20:57.339Z,0.8
2019-05-21T09:21:57.367Z,0.8
2019-05-21T09:22:57.370Z,0.2
2019-05-21T10:03:08.063Z,0.8
2019-05-21T10:04:08.082Z,0.2
2019-05-21T10:05:08.086Z,0.8
2019-05-21T10:18:08.394Z,0.8
2019-05-21T10:33:08.769Z,0.7
2019-05-21T10:50:09.144Z,0.8
2019-05-21T11:12:09.722Z,1.0
2019-05-21T11:32:30.070Z,0.9
2019-05-21T11:33:20.102Z,1.3
2019-05-21T11:34:20.122Z,1.5
2019-05-21T11:35:20.131Z,0.9
2019-05-21T11:36:20.139Z,0.8
2019-05-21T11:38:20.166Z,0.8
2019-05-21T11:39:20.177Z,1.0
2019-05-21T11:40:20.195Z,0.8
2019-05-21T11:41:20.242Z,1.1
2019-05-21T11:43:30.269Z,0.8
2019-05-21T11:44:20.289Z,1.0
2019-05-21T11:45:31.414Z,1.6
2019-05-21T11:46:20.306Z,1.3
2019-05-21T11:47:20.324Z,1.0
2019-05-21T11:48:20.350Z,1.3
2019-05-21T11:49:20.393Z,1.7
2019-05-21T11:50:20.448Z,1.0
2019-05-21T11:51:20.467Z,0.8
2019-05-21T11:53:20.569Z,0.6
2019-05-21T11:54:20.536Z,0.8
2019-05-21T11:55:20.557Z,0.8
2019-05-21T11:56:20.563Z,0.4
2019-05-21T11:58:30.646Z,0.9
2019-05-21T11:59:20.680Z,0.8
2019-05-21T12:00:21.730Z,0.9
2019-05-21T12:01:20.681Z,0.8
2019-05-21T12:03:20.714Z,0.4
2019-05-21T12:04:20.704Z,0.8
2019-05-21T12:05:20.741Z,0.7
2019-05-21T12:06:20.812Z,0.8
2019-05-21T12:07:20.758Z,0.8
2019-05-21T12:08:20.788Z,0.8
2019-05-21T12:09:20.774Z,0.9
2019-05-21T12:10:20.818Z,1.2
2019-05-21T12:11:20.901Z,1.1
2019-05-21T12:13:30.937Z,0.4
2019-05-21T12:14:21.007Z,0.0
2019-05-21T12:15:21.044Z,0.4
2019-05-21T12:16:21.044Z,0.6
2019-05-21T12:17:21.058Z,0.8
2019-05-21T12:18:21.127Z,0.9
2019-05-21T12:19:21.191Z,0.9
2019-05-21T12:20:35.125Z,1.0
2019-05-21T12:21:21.169Z,0.8
2019-05-21T12:23:21.202Z,1.4
2019-05-21T12:24:21.190Z,0.6
2019-05-21T12:25:21.220Z,1.0
2019-05-21T12:26:21.233Z,0.8
2019-05-21T12:27:21.239Z,0.8
2019-05-21T12:28:21.260Z,0.8
2019-05-21T12:29:21.268Z,0.9
2019-05-21T12:30:21.301Z,0.8
2019-05-21T12:31:21.326Z,0.8
2019-05-21T12:33:34.781Z,0.6
2019-05-21T12:34:21.432Z,0.9
2019-05-21T12:35:21.406Z,0.2
2019-05-21T12:36:21.429Z,0.2
2019-05-21T12:38:21.464Z,0.8
2019-05-21T12:39:21.498Z,0.2
2019-05-21T12:40:21.492Z,0.0
2019-05-21T12:41:21.491Z,0.6
2019-05-21T12:43:31.526Z,0.4
2019-05-21T12:44:21.615Z,0.2
2019-05-21T12:45:21.571Z,0.8
2019-05-21T12:46:21.563Z,0.6
2019-05-21T12:49:21.726Z,0.9
2019-05-21T12:50:21.742Z,0.6
2019-05-21T12:51:21.751Z,0.2
2019-05-21T12:53:21.835Z,1.0
2019-05-21T12:54:21.917Z,0.8
2019-05-21T12:55:21.933Z,0.8
2019-05-21T12:56:21.946Z,0.8
2019-05-21T12:58:22.032Z,0.8
2019-05-21T12:59:22.050Z,0.9
2019-05-21T13:00:22.057Z,0.6
2019-05-21T13:01:22.064Z,0.6
2019-05-21T13:03:32.146Z,0.8
2019-05-21T13:04:32.113Z,0.8
2019-05-21T13:05:32.128Z,0.8
2019-05-21T13:06:32.146Z,0.8
2019-05-21T13:07:52.147Z,0.8
2019-05-21T13:08:52.180Z,0.8
2019-05-21T13:09:52.221Z,0.6
2019-05-21T13:10:52.222Z,0.6
2019-05-21T13:13:02.297Z,0.8
2019-05-21T13:14:02.335Z,0.4
2019-05-21T13:15:02.309Z,0.6
2019-05-21T13:16:02.348Z,0.8
2019-05-21T13:17:22.377Z,0.6
2019-05-21T13:18:02.388Z,0.6
2019-05-21T13:18:52.430Z,0.8
2019-05-21T13:19:52.409Z,0.8
2019-05-21T13:20:52.426Z,0.8
2019-05-21T13:23:02.453Z,0.6
2019-05-21T13:24:02.475Z,0.6
2019-05-21T13:25:02.482Z,0.6
2019-05-21T13:26:02.501Z,0.6
2019-05-21T13:27:22.545Z,0.0
2019-05-21T13:28:02.591Z,0.0
2019-05-21T13:29:02.598Z,0.6
2019-05-21T13:30:02.679Z,0.2
2019-05-21T13:31:02.649Z,0.6
2019-05-21T13:32:22.698Z,0.0
2019-05-21T13:37:32.779Z,0.8
2019-05-21T13:38:22.789Z,0.6
2019-05-21T13:39:25.581Z,0.8
2019-05-21T13:40:22.805Z,0.8
2019-05-21T13:41:22.858Z,0.6
2019-05-21T13:42:22.842Z,0.2
2019-05-21T13:43:22.902Z,0.2
2019-05-21T13:44:22.947Z,0.0
2019-05-21T13:45:22.934Z,0.2
2019-05-21T13:46:22.975Z,0.0
2019-05-21T13:47:23.034Z,0.8
2019-05-21T13:48:23.018Z,0.6
2019-05-21T13:49:23.019Z,0.2
2019-05-21T13:50:23.027Z,0.4
2019-05-21T13:51:23.059Z,0.4
2019-05-21T13:53:23.078Z,0.6
2019-05-21T13:54:23.096Z,0.6
2019-05-21T13:55:23.181Z,0.8
2019-05-21T13:56:23.223Z,0.8
2019-05-21T13:58:23.213Z,0.8
2019-05-21T13:59:23.234Z,0.8
2019-05-21T14:00:23.255Z,0.8
2019-05-21T14:01:39.154Z,0.4
2019-05-21T14:03:23.312Z,0.4
2019-05-21T14:04:23.345Z,0.8
2019-05-21T14:07:33.440Z,0.0
2019-05-21T14:08:23.473Z,0.0
2019-05-21T14:12:33.568Z,0.4
2019-05-21T14:17:53.746Z,0.4
2019-05-21T14:18:53.806Z,0.8
2019-05-21T14:19:53.827Z,0.8
2019-05-21T14:59:54.710Z,0.2
2019-05-21T15:02:04.735Z,0.2
2019-05-21T15:03:04.754Z,0.8
2019-05-21T15:04:04.850Z,0.8
2019-05-21T15:05:04.773Z,0.4
2019-05-21T15:08:54.846Z,0.2
2019-05-21T15:09:54.864Z,0.8
2019-05-21T15:10:54.895Z,0.8
2019-05-21T15:13:06.199Z,0.8
2019-05-21T15:14:05.015Z,0.8
2019-05-21T15:15:05.210Z,0.6
2019-05-21T15:16:05.068Z,0.8
2019-05-21T15:17:25.140Z,0.8
2019-05-21T15:18:05.156Z,0.8
2019-05-21T15:19:05.186Z,1.0
2019-05-21T15:20:05.186Z,0.9
2019-05-21T15:21:05.345Z,0.8
2019-05-21T15:22:25.215Z,0.6
2019-05-21T15:23:05.234Z,0.8
2019-05-21T15:24:05.461Z,0.8
2019-05-21T15:25:05.257Z,0.9
2019-05-21T15:26:05.392Z,1.5
2019-05-21T15:27:25.322Z,1.0
2019-05-21T15:28:05.327Z,1.1
2019-05-21T15:29:05.334Z,0.8
2019-05-21T15:30:05.378Z,1.0
2019-05-21T15:31:05.476Z,0.8
2019-05-21T15:32:05.488Z,1.1
2019-05-21T15:33:05.505Z,0.8
2019-05-21T15:34:05.646Z,0.8
2019-05-21T15:35:05.588Z,0.8
2019-05-21T15:36:05.601Z,0.8
2019-05-21T15:37:25.604Z,0.8
2019-05-21T15:38:05.705Z,0.8
2019-05-21T15:39:05.721Z,0.8
2019-05-21T15:40:05.726Z,0.8
2019-05-21T15:41:11.285Z,0.8
2019-05-21T15:42:05.812Z,0.8
2019-05-21T15:43:05.810Z,1.0
2019-05-21T15:44:05.833Z,0.4
2019-05-21T15:45:05.886Z,0.0
2019-05-21T15:46:05.855Z,0.8
2019-05-21T15:48:05.921Z,1.0
2019-05-21T15:49:05.995Z,0.8
2019-05-21T15:50:05.980Z,0.8
2019-05-21T15:51:05.992Z,0.8
2019-05-21T15:53:06.004Z,0.8
2019-05-21T15:54:06.006Z,1.1
2019-05-21T15:55:07.092Z,0.8
2019-05-21T15:56:06.036Z,0.8
2019-05-21T15:58:06.150Z,0.8
2019-05-21T15:59:06.152Z,0.9
2019-05-21T16:00:06.158Z,0.8
2019-05-21T16:01:06.178Z,0.8
2019-05-21T16:03:06.210Z,0.8
2019-05-21T16:04:06.217Z,0.8
2019-05-21T16:05:06.396Z,0.8
2019-05-21T16:06:06.233Z,0.8
2019-05-21T16:07:06.262Z,0.8
2019-05-21T16:08:06.275Z,0.8
2019-05-21T16:09:06.306Z,0.8
2019-05-21T16:10:06.315Z,0.8
2019-05-21T16:11:06.325Z,0.8
2019-05-21T16:13:06.357Z,0.8
2019-05-21T16:14:06.362Z,0.8
2019-05-21T16:15:06.373Z,0.8
2019-05-21T16:16:06.470Z,0.8
2019-05-21T16:18:06.485Z,0.8
2019-05-21T16:19:06.504Z,0.8
2019-05-21T16:20:06.517Z,0.8
2019-05-21T16:21:06.557Z,0.8
2019-05-21T16:23:06.581Z,0.8
2019-05-21T16:24:06.599Z,0.8
2019-05-21T16:25:06.603Z,0.8
2019-05-21T16:26:06.626Z,0.8
2019-05-21T16:28:06.738Z,0.8
2019-05-21T16:29:06.748Z,0.8
2019-05-21T16:30:06.752Z,0.8
2019-05-21T16:31:06.774Z,0.6
2019-05-21T16:33:06.902Z,0.8
2019-05-21T16:34:06.922Z,0.8
2019-05-21T16:35:06.930Z,0.9
2019-05-21T16:36:07.013Z,0.8
2019-05-21T16:38:07.043Z,0.8
2019-05-21T16:39:07.061Z,0.8
2019-05-21T16:40:07.084Z,1.0
2019-05-21T16:41:07.089Z,1.2
2019-05-21T16:43:07.113Z,0.8
2019-05-21T16:44:07.120Z,0.8
2019-05-21T16:45:07.130Z,0.8
2019-05-21T16:46:10.098Z,0.8
2019-05-21T16:48:07.172Z,0.9
2019-05-21T16:49:07.187Z,0.8
2019-05-21T16:50:07.246Z,0.8
2019-05-21T16:51:07.240Z,0.8
2019-05-21T16:53:07.294Z,0.8
2019-05-21T16:54:07.310Z,0.8
2019-05-21T16:55:07.407Z,0.8
2019-05-21T16:56:07.396Z,0.9
2019-05-21T16:58:07.446Z,0.8
2019-05-21T16:59:07.428Z,0.8
2019-05-21T17:00:07.445Z,0.8
2019-05-21T17:01:07.496Z,0.8
2019-05-21T17:02:27.512Z,0.9
2019-05-21T17:04:07.548Z,0.8
2019-05-21T17:05:07.549Z,1.3
2019-05-21T17:06:07.622Z,0.8
2019-05-21T17:07:27.737Z,0.9
2019-05-21T17:08:07.743Z,0.6
2019-05-21T17:09:07.789Z,0.8
2019-05-21T17:10:07.746Z,1.0
2019-05-21T17:11:07.793Z,1.0
2019-05-21T17:12:37.859Z,1.3
2019-05-21T17:17:37.966Z,0.6
2019-05-21T17:22:38.060Z,0.8
2019-05-21T17:23:28.063Z,0.8
2019-05-21T17:24:28.147Z,0.6
2019-05-21T17:25:28.081Z,1.0
2019-05-21T17:26:28.094Z,1.3
2019-05-21T17:31:58.231Z,0.8
2019-05-21T17:32:58.328Z,0.9
2019-05-21T17:33:58.241Z,0.8
2019-05-21T17:34:58.248Z,0.8
2019-05-21T17:35:58.272Z,0.7
2019-05-21T17:36:58.294Z,0.8
2019-05-21T17:37:58.313Z,0.8
2019-05-21T17:38:58.303Z,0.4
2019-05-21T17:39:58.313Z,0.0
2019-05-21T17:40:58.336Z,0.4
2019-05-21T17:42:15.323Z,0.8
2019-05-21T17:43:08.381Z,0.8
2019-05-21T17:47:28.453Z,0.8
2019-05-21T17:52:38.546Z,0.2
2019-05-21T17:53:28.584Z,0.0
2019-05-21T17:54:28.589Z,0.0
2019-05-21T17:55:28.596Z,0.0
2019-05-21T17:56:28.607Z,0.0
2019-05-21T17:57:28.626Z,0.0
2019-05-21T17:58:28.657Z,0.0
2019-05-21T17:59:28.647Z,0.0
2019-05-21T18:00:28.661Z,0.0
2019-05-21T18:01:28.729Z,0.0
2019-05-21T18:07:08.857Z,0.0
2019-05-21T18:08:08.904Z,0.0
2019-05-21T18:12:39.194Z,0.4
2019-05-21T18:17:39.082Z,0.4
2019-05-21T18:18:29.103Z,0.8
2019-05-21T18:19:29.107Z,0.8
2019-05-21T18:20:29.126Z,1.1
2019-05-21T18:21:29.144Z,0.8
2019-05-21T18:55:09.940Z,0.6
2019-05-21T18:55:59.918Z,0.0
2019-05-21T18:56:59.945Z,0.8
2019-05-21T18:57:59.949Z,0.8
2019-05-21T18:58:59.972Z,0.8
2019-05-21T18:59:59.983Z,0.6
2019-05-21T19:01:00.006Z,0.6
2019-05-21T19:02:00.013Z,0.8
2019-05-21T19:03:00.052Z,0.6
2019-05-21T19:04:00.040Z,0.4
2019-05-21T19:05:00.186Z,0.8
2019-05-21T19:06:00.148Z,0.8
2019-05-21T19:07:00.176Z,0.8
2019-05-21T19:08:00.187Z,0.8
2019-05-21T19:09:00.185Z,0.8
2019-05-21T19:10:00.941Z,0.8
2019-05-21T19:11:00.242Z,0.8
2019-05-21T19:12:00.264Z,0.9
2019-05-21T19:13:01.124Z,1.2
2019-05-21T19:14:00.294Z,0.8
2019-05-21T19:15:10.306Z,0.8
2019-05-21T19:16:00.323Z,0.8
2019-05-21T19:17:00.359Z,0.8
2019-05-21T19:18:00.383Z,0.8
2019-05-21T19:19:00.440Z,0.8
2019-05-21T19:20:00.402Z,0.9
2019-05-21T19:21:00.522Z,0.8
2019-05-21T19:22:00.565Z,1.2
2019-05-21T19:23:00.584Z,1.1
2019-05-21T19:24:00.646Z,0.9
2019-05-21T19:25:00.703Z,0.9
2019-05-21T19:26:00.750Z,1.2
2019-05-21T19:27:00.735Z,0.8
2019-05-21T19:28:00.792Z,0.8
2019-05-21T19:29:00.802Z,0.8
2019-05-21T19:30:00.823Z,0.8
2019-05-21T19:31:00.947Z,0.2
2019-05-21T19:32:01.035Z,0.5
2019-05-21T19:33:01.040Z,0.7
2019-05-21T19:34:01.045Z,0.8
2019-05-21T19:35:11.082Z,0.8
2019-05-21T19:36:01.135Z,0.8
2019-05-21T19:37:01.096Z,0.8
2019-05-21T19:38:01.108Z,0.6
2019-05-21T19:39:01.200Z,0.0
2019-05-21T19:40:11.146Z,0.0
2019-05-21T19:41:01.268Z,0.6
2019-05-21T19:42:01.273Z,0.4
2019-05-21T19:43:01.311Z,0.0
2019-05-21T19:44:01.287Z,0.0
2019-05-21T19:45:11.431Z,0.0
2019-05-21T19:46:01.408Z,0.0
2019-05-21T19:47:01.335Z,0.0
2019-05-21T19:48:01.419Z,0.0
2019-05-21T19:49:01.465Z,0.6
2019-05-21T19:50:11.466Z,0.8
2019-05-21T19:51:01.515Z,0.8
2019-05-21T19:52:01.544Z,0.8
2019-05-21T19:53:01.502Z,0.8
2019-05-21T19:54:01.626Z,0.8
2019-05-21T19:55:11.557Z,0.6
2019-05-21T19:56:01.565Z,0.6
2019-05-21T19:57:01.591Z,0.8
2019-05-21T19:58:01.577Z,0.8
2019-05-21T19:59:01.600Z,0.8
2019-05-21T20:00:11.637Z,0.6
2019-05-21T20:01:01.663Z,0.8
2019-05-21T20:02:01.801Z,0.8
2019-05-21T20:03:01.789Z,0.8
2019-05-21T20:04:01.749Z,0.8
2019-05-21T20:05:11.819Z,0.2
2019-05-21T20:06:01.798Z,0.0
2019-05-21T20:07:02.004Z,0.0
2019-05-21T20:08:02.024Z,0.0
2019-05-21T20:09:02.109Z,0.0
2019-05-21T20:10:12.084Z,0.4
2019-05-21T20:11:02.198Z,0.4
2019-05-21T20:12:02.160Z,0.0
2019-05-21T20:13:02.217Z,0.0
2019-05-21T20:14:02.183Z,0.0
2019-05-21T20:15:12.163Z,0.0
2019-05-21T20:16:02.270Z,0.2
2019-05-21T20:17:02.350Z,0.8
2019-05-21T20:18:07.236Z,0.8
2019-05-21T20:19:02.342Z,0.2
2019-05-21T20:20:12.214Z,0.0
2019-05-21T20:21:02.231Z,0.0
2019-05-21T20:22:02.252Z,0.0
2019-05-21T20:23:02.321Z,0.8
2019-05-21T20:24:02.314Z,0.0
2019-05-21T20:25:12.332Z,0.0
2019-05-21T20:26:02.344Z,0.0
2019-05-21T20:27:02.354Z,0.0
2019-05-21T20:28:02.380Z,0.4
2019-05-21T20:29:02.388Z,0.6
2019-05-21T20:30:13.245Z,0.0
2019-05-21T20:31:02.456Z,0.6
2019-05-21T20:32:02.444Z,0.6
2019-05-21T20:33:02.462Z,0.0
2019-05-21T20:34:02.468Z,0.0
2019-05-21T20:35:12.536Z,0.0
2019-05-21T20:36:02.508Z,0.0
2019-05-21T20:37:02.520Z,0.0
2019-05-21T20:38:02.650Z,0.0
2019-05-21T20:39:02.594Z,0.0
2019-05-21T20:40:12.607Z,0.0
2019-05-21T20:41:02.632Z,0.0
2019-05-21T20:42:02.669Z,0.0
2019-05-21T20:43:02.711Z,0.0
2019-05-21T20:44:02.699Z,0.0
2019-05-21T20:45:12.715Z,0.0
2019-05-21T20:46:02.749Z,0.0
2019-05-21T20:47:02.747Z,0.0
2019-05-21T20:48:02.751Z,0.0
2019-05-21T20:49:02.755Z,0.0
2019-05-21T20:50:12.842Z,0.0
2019-05-21T20:51:02.800Z,0.0
2019-05-21T20:52:17.643Z,0.0
2019-05-21T20:53:02.833Z,0.0
2019-05-21T20:54:02.865Z,0.0
2019-05-21T20:55:12.878Z,0.8
2019-05-21T20:56:02.899Z,0.0
2019-05-21T20:57:02.910Z,0.0
2019-05-21T20:58:02.995Z,0.0
2019-05-21T20:59:02.929Z,0.0
2019-05-21T21:00:12.946Z,0.0
2019-05-21T21:01:02.983Z,0.0
2019-05-21T21:02:05.748Z,0.0
2019-05-21T21:03:02.985Z,0.0
2019-05-21T21:04:02.998Z,0.0
2019-05-21T21:05:13.024Z,0.0
2019-05-21T21:06:03.054Z,0.0
2019-05-21T21:07:03.085Z,0.0
2019-05-21T21:08:03.102Z,0.0
2019-05-21T21:09:03.132Z,0.0
2019-05-21T21:10:13.153Z,0.0
2019-05-21T21:11:03.194Z,0.0
2019-05-21T21:12:03.185Z,0.0
2019-05-21T21:13:03.198Z,0.0
2019-05-21T21:14:16.962Z,0.0
2019-05-21T21:15:13.221Z,0.0
2019-05-21T21:16:03.335Z,0.0
2019-05-21T21:17:03.297Z,0.0
2019-05-21T21:18:03.265Z,0.0
2019-05-21T21:19:03.431Z,0.0
2019-05-21T21:20:13.297Z,0.0
2019-05-21T21:21:03.374Z,0.0
2019-05-21T21:22:03.355Z,0.0
2019-05-21T21:23:03.376Z,0.0
2019-05-21T21:24:03.399Z,0.0
2019-05-21T21:25:13.433Z,0.0
2019-05-21T21:26:03.433Z,0.0
2019-05-21T21:28:03.541Z,0.0
2019-05-21T21:29:03.539Z,0.0
2019-05-21T21:30:13.573Z,0.0
2019-05-21T21:31:03.727Z,0.0
2019-05-21T21:32:03.724Z,0.0
2019-05-21T21:33:03.746Z,0.0
2019-05-21T21:34:03.762Z,0.0
2019-05-21T21:35:13.834Z,0.0
2019-05-21T21:36:03.828Z,0.0
2019-05-21T21:37:03.834Z,0.0
2019-05-21T21:38:03.867Z,0.0
2019-05-21T21:39:03.873Z,0.0
2019-05-21T21:40:13.877Z,0.0
2019-05-21T21:41:13.893Z,0.0
2019-05-21T21:42:13.980Z,0.0
2019-05-21T21:43:14.005Z,0.0
2019-05-21T21:44:13.980Z,0.0
2019-05-21T21:46:14.067Z,0.0
2019-05-21T21:47:14.075Z,0.0
2019-05-21T21:48:14.086Z,0.0
2019-05-21T21:49:14.097Z,0.0
2019-05-21T21:54:34.169Z,0.2
2019-05-21T21:55:34.168Z,0.4
2019-05-21T21:59:34.222Z,0.6
2019-05-21T22:00:34.233Z,0.0
2019-05-21T22:04:34.335Z,0.0
2019-05-21T22:05:34.419Z,0.0
2019-05-21T22:09:34.503Z,0.3
2019-05-21T22:10:34.553Z,0.4
2019-05-21T22:14:49.460Z,0.6
2019-05-21T22:15:34.683Z,0.8
2019-05-21T22:16:34.678Z,0.0
2019-05-21T22:17:34.702Z,0.0
2019-05-21T22:18:34.749Z,0.4
2019-05-21T22:19:44.757Z,0.6
2019-05-21T22:21:54.863Z,0.0
2019-05-21T22:25:04.880Z,0.0
2019-05-21T22:26:05.029Z,0.0
2019-05-21T22:27:05.010Z,0.0
2019-05-21T22:28:05.036Z,0.0
2019-05-21T22:29:05.130Z,0.0
2019-05-21T22:30:15.124Z,0.8
2019-05-21T22:31:05.144Z,0.8
2019-05-21T22:32:05.126Z,0.8
2019-05-21T22:33:05.153Z,0.9
2019-05-21T22:34:05.166Z,0.4
2019-05-21T22:35:15.189Z,0.0
2019-05-21T22:36:15.256Z,0.0
2019-05-21T22:37:15.293Z,0.0
2019-05-21T22:38:15.265Z,0.0
2019-05-21T22:39:15.282Z,0.0
2019-05-21T22:44:35.470Z,0.4
2019-05-21T22:45:35.524Z,0.8
2019-05-21T22:49:35.748Z,0.0
2019-05-21T22:50:35.787Z,0.0
2019-05-21T22:54:35.843Z,0.0
2019-05-21T22:55:35.858Z,0.0
2019-05-21T22:59:35.939Z,0.0
2019-05-21T23:00:35.968Z,0.0
2019-05-21T23:04:36.133Z,0.0
2019-05-21T23:05:36.201Z,0.0
2019-05-21T23:09:36.250Z,0.0
2019-05-21T23:10:36.316Z,0.0
2019-05-21T23:14:36.378Z,0.0
2019-05-21T23:15:36.391Z,0.0
2019-05-21T23:19:36.454Z,0.0
2019-05-21T23:20:36.472Z,0.0
2019-05-21T23:24:36.587Z,0.0
2019-05-21T23:25:36.610Z,0.0
2019-05-21T23:28:16.683Z,0.0
2019-05-21T23:29:16.694Z,0.0
2019-05-21T23:31:16.772Z,0.0
2019-05-21T23:32:16.787Z,0.0
2019-05-21T23:33:16.793Z,0.0
2019-05-21T23:34:16.805Z,0.0
2019-05-21T23:39:36.893Z,0.2
2019-05-21T23:40:36.951Z,1.0
2019-05-21T23:44:37.044Z,0.0
2019-05-21T23:45:37.123Z,0.0
2019-05-21T23:49:37.226Z,0.6
2019-05-21T23:50:37.241Z,0.0
2019-05-21T23:54:37.312Z,0.0
2019-05-21T23:55:37.321Z,0.0
2019-05-21T23:58:17.421Z,0.2
